Time;durP1;ratioP1;P1;durP2;ratioP2;P2;SDS_P1;SDS_P2;PMS_P1;PMS_P2;Temp;Humidity;BMP_temperature;BMP_pressure;BME280_temperature;BME280_humidity;BME280_pressure;Samples;Min_cycle;Max_cycle;Signal;HPM_P1;HPM_P2
2021/06/24 00:01:36;;;;;;;9.20;3.50;;;15.30;99.90;;;;;;4919135;29;20472;-69
2021/06/24 00:04:02;;;;;;;9.38;3.72;;;15.30;99.90;;;;;;4935479;28;20034;-69
2021/06/24 00:06:27;;;;;;;10.48;5.00;;;15.30;99.90;;;;;;4919041;29;20131;-69
2021/06/24 00:08:53;;;;;;;7.60;3.80;;;15.30;99.90;;;;;;4935997;29;20020;-70
2021/06/24 00:11:19;;;;;;;9.95;3.72;;;15.30;99.90;;;;;;4935627;29;20027;-76
2021/06/24 00:13:45;;;;;;;7.00;3.38;;;15.30;99.90;;;;;;4918545;29;20047;-69
2021/06/24 00:16:11;;;;;;;6.70;3.55;;;15.30;99.90;;;;;;4919046;29;20028;-69
2021/06/24 00:18:37;;;;;;;4.63;2.75;;;15.30;99.90;;;;;;4935165;29;20059;-69
2021/06/24 00:21:03;;;;;;;4.85;3.50;;;15.30;99.90;;;;;;4935833;29;20032;-71
2021/06/24 00:23:29;;;;;;;9.73;4.15;;;15.30;99.90;;;;;;4918721;29;20027;-70
2021/06/24 00:25:55;;;;;;;8.48;3.80;;;15.30;99.90;;;;;;4935132;29;20027;-69
2021/06/24 00:28:26;;;;;;;7.38;3.63;;;15.30;99.90;;;;;;4935957;29;20107;-69
2021/06/24 00:30:52;;;;;;;5.80;3.50;;;15.30;99.90;;;;;;4935590;29;20024;-70
2021/06/24 00:33:18;;;;;;;6.38;3.25;;;15.30;99.90;;;;;;4918148;29;20596;-69
2021/06/24 00:35:44;;;;;;;7.85;3.60;;;15.30;99.90;;;;;;4934713;29;20036;-69
2021/06/24 00:38:10;;;;;;;11.57;3.50;;;15.30;99.90;;;;;;4934947;29;20103;-70
2021/06/24 00:40:38;;;;;;;8.18;3.67;;;15.30;99.90;;;;;;4935458;29;20032;-71
2021/06/24 00:43:06;;;;;;;8.57;3.85;;;15.20;99.90;;;;;;4918643;29;20059;-69
2021/06/24 00:45:32;;;;;;;11.52;5.05;;;15.20;99.90;;;;;;4934591;29;20046;-69
2021/06/24 00:47:58;;;;;;;6.88;3.47;;;15.20;99.90;;;;;;4935447;29;20038;-69
2021/06/24 00:50:24;;;;;;;8.45;3.72;;;15.10;99.90;;;;;;4935531;29;20031;-70
2021/06/24 00:52:49;;;;;;;9.27;3.97;;;15.10;99.90;;;;;;4934250;29;20041;-69
2021/06/24 00:55:15;;;;;;;8.60;4.03;;;15.20;99.90;;;;;;4935473;29;20485;-69
2021/06/24 00:57:41;;;;;;;5.03;3.55;;;15.10;99.90;;;;;;4935045;29;20030;-69
2021/06/24 01:00:08;;;;;;;13.73;3.92;;;15.10;99.90;;;;;;4917610;29;20030;-69
2021/06/24 01:02:36;;;;;;;8.52;3.85;;;15.10;99.90;;;;;;4917968;29;20038;-69
2021/06/24 01:05:02;;;;;;;7.65;3.63;;;15.10;99.90;;;;;;4935110;29;20535;-70
2021/06/24 01:07:27;;;;;;;9.40;3.80;;;15.10;99.90;;;;;;4934376;29;20488;-69
2021/06/24 01:09:53;;;;;;;7.72;4.10;;;15.10;99.90;;;;;;4934613;29;20118;-69
2021/06/24 01:12:20;;;;;;;9.48;4.03;;;15.10;99.90;;;;;;4918074;29;20404;-69
2021/06/24 01:14:48;;;;;;;9.73;4.85;;;15.10;99.90;;;;;;4933925;29;20043;-79
2021/06/24 01:17:14;;;;;;;9.82;3.80;;;15.10;99.90;;;;;;4935060;29;20473;-78
2021/06/24 01:19:40;;;;;;;5.47;3.53;;;15.10;99.90;;;;;;4934749;29;20039;-70
2021/06/24 01:22:06;;;;;;;7.47;3.17;;;15.10;99.90;;;;;;4934306;29;20019;-76
2021/06/24 01:24:32;;;;;;;7.45;3.65;;;15.10;99.90;;;;;;4934699;29;20106;-81
2021/06/24 01:26:57;;;;;;;8.98;4.47;;;15.10;99.90;;;;;;4934764;29;20122;-77
2021/06/24 01:29:23;;;;;;;6.78;3.75;;;15.10;99.90;;;;;;4934496;29;20035;-79
2021/06/24 01:31:48;;;;;;;7.05;4.25;;;15.10;99.90;;;;;;4917592;29;20394;-82
2021/06/24 01:34:14;;;;;;;7.70;3.88;;;15.00;99.90;;;;;;4934848;29;20039;-80
2021/06/24 01:36:40;;;;;;;6.97;4.03;;;15.00;99.90;;;;;;4916875;29;20023;-72
2021/06/24 01:39:10;;;;;;;7.63;4.10;;;15.00;99.90;;;;;;4934832;29;20162;-79
2021/06/24 01:41:36;;;;;;;5.75;4.03;;;15.00;99.90;;;;;;4934112;29;20042;-77
2021/06/24 01:44:02;;;;;;;8.32;4.03;;;15.00;99.90;;;;;;4917673;29;20031;-74
2021/06/24 01:46:28;;;;;;;9.52;4.03;;;15.00;99.90;;;;;;4917807;29;20035;-82
2021/06/24 01:48:53;;;;;;;7.13;3.63;;;15.00;99.90;;;;;;4920745;29;20023;-77
2021/06/24 01:51:19;;;;;;;9.60;4.13;;;14.90;99.90;;;;;;4938766;29;20028;-69
2021/06/24 01:53:44;;;;;;;7.55;4.07;;;14.80;99.90;;;;;;4938230;29;20083;-69
2021/06/24 01:56:10;;;;;;;4.50;3.80;;;14.90;99.90;;;;;;4921076;29;20020;-70
2021/06/24 01:58:36;;;;;;;7.80;3.97;;;14.80;99.90;;;;;;4938490;29;20115;-69
2021/06/24 02:01:03;;;;;;;6.03;4.18;;;14.90;99.90;;;;;;4921392;29;20488;-73
2021/06/24 02:03:34;;;;;;;7.75;4.43;;;14.90;99.90;;;;;;4920652;29;20026;-70
2021/06/24 02:05:59;;;;;;;8.57;5.15;;;14.90;99.90;;;;;;4938291;29;20039;-71
2021/06/24 02:08:27;;;;;;;7.43;4.68;;;14.90;99.90;;;;;;4921223;29;20026;-70
2021/06/24 02:10:54;;;;;;;5.93;3.70;;;14.90;99.90;;;;;;4937268;29;20102;-71
2021/06/24 02:13:20;;;;;;;11.02;4.40;;;14.90;99.90;;;;;;4938393;29;20098;-71
2021/06/24 02:15:46;;;;;;;8.05;4.10;;;14.90;99.90;;;;;;4937920;29;20023;-69
2021/06/24 02:18:12;;;;;;;8.25;4.38;;;14.90;99.90;;;;;;4937534;29;20099;-70
2021/06/24 02:20:38;;;;;;;7.40;4.10;;;14.90;99.90;;;;;;4920948;29;20399;-72
2021/06/24 02:23:05;;;;;;;6.00;3.70;;;14.80;99.90;;;;;;4937905;29;20031;-68
2021/06/24 02:25:32;;;;;;;8.23;3.97;;;14.90;99.90;;;;;;4937194;29;20031;-70
2021/06/24 02:27:58;;;;;;;7.28;3.90;;;14.80;99.90;;;;;;4937920;29;20028;-70
2021/06/24 02:30:24;;;;;;;7.57;4.35;;;14.80;99.90;;;;;;4938005;29;20071;-70
2021/06/24 02:32:52;;;;;;;8.65;4.57;;;14.80;99.90;;;;;;4919831;29;20122;-70
2021/06/24 02:35:18;;;;;;;6.18;4.22;;;14.80;99.90;;;;;;4938062;29;20079;-70
2021/06/24 02:37:45;;;;;;;10.40;4.70;;;14.80;99.90;;;;;;4919822;29;20059;-70
2021/06/24 02:40:14;;;;;;;5.88;4.13;;;14.70;99.90;;;;;;4920788;29;20016;-70
2021/06/24 02:42:40;;;;;;;5.43;3.58;;;14.70;99.90;;;;;;4920288;29;20036;-71
2021/06/24 02:45:08;;;;;;;5.00;3.83;;;14.70;99.90;;;;;;4937148;29;20031;-69
2021/06/24 02:47:33;;;;;;;6.32;3.88;;;14.70;99.90;;;;;;4937453;29;20039;-69
2021/06/24 02:49:59;;;;;;;11.57;4.90;;;14.70;99.90;;;;;;4920466;29;20057;-70
2021/06/24 02:52:25;;;;;;;8.10;4.70;;;14.60;99.90;;;;;;4937009;29;20055;-70
2021/06/24 02:54:52;;;;;;;7.45;4.53;;;14.60;99.90;;;;;;4937171;29;20062;-69
2021/06/24 02:57:18;;;;;;;7.88;4.25;;;14.50;99.90;;;;;;4937663;29;20396;-71
2021/06/24 02:59:44;;;;;;;9.23;4.88;;;14.50;99.90;;;;;;4918698;29;20440;-78
2021/06/24 03:02:10;;;;;;;7.45;4.45;;;14.50;99.90;;;;;;4937437;29;20468;-69
2021/06/24 03:04:36;;;;;;;8.82;4.50;;;14.50;99.90;;;;;;4919983;29;20031;-69
2021/06/24 03:07:01;;;;;;;7.38;4.60;;;14.50;99.90;;;;;;4936579;29;20032;-74
2021/06/24 03:09:27;;;;;;;7.18;4.22;;;14.50;99.90;;;;;;4920725;29;20453;-69
2021/06/24 03:11:53;;;;;;;7.68;4.75;;;14.60;99.90;;;;;;4919716;29;20420;-69
2021/06/24 03:14:19;;;;;;;11.45;5.07;;;14.60;99.90;;;;;;4919433;29;20055;-72
2021/06/24 03:16:45;;;;;;;7.93;4.85;;;14.50;99.90;;;;;;4919784;29;20457;-79
2021/06/24 03:19:11;;;;;;;5.65;4.35;;;14.50;99.90;;;;;;4920079;29;20063;-75
2021/06/24 03:21:36;;;;;;;10.07;5.25;;;14.50;99.90;;;;;;4936252;29;20507;-80
2021/06/24 03:24:02;;;;;;;7.00;3.75;;;14.50;99.90;;;;;;4936700;29;20400;-78
2021/06/24 03:26:28;;;;;;;6.50;3.88;;;14.50;99.90;;;;;;4937145;29;20252;-81
2021/06/24 03:28:53;;;;;;;5.35;4.22;;;14.50;99.90;;;;;;4936088;29;20478;-76
2021/06/24 03:31:19;;;;;;;10.27;4.38;;;14.60;99.90;;;;;;4919987;29;20023;-81
2021/06/24 03:33:45;;;;;;;8.18;4.70;;;14.50;99.90;;;;;;4936506;29;20031;-80
2021/06/24 03:36:10;;;;;;;7.72;4.53;;;14.50;99.90;;;;;;4936048;29;20473;-78
2021/06/24 03:38:36;;;;;;;7.00;4.68;;;14.50;99.90;;;;;;4935988;29;20027;-78
2021/06/24 03:41:02;;;;;;;7.13;4.10;;;14.60;99.90;;;;;;4934917;29;20090;-79
2021/06/24 03:43:28;;;;;;;6.40;4.30;;;14.50;99.90;;;;;;4918206;29;20122;-76
2021/06/24 03:45:54;;;;;;;7.00;4.43;;;14.50;99.90;;;;;;4942895;29;20191;-70
2021/06/24 03:48:20;;;;;;;9.05;4.45;;;14.50;99.90;;;;;;4917809;29;20036;-71
2021/06/24 03:50:45;;;;;;;10.10;4.45;;;14.50;99.90;;;;;;4926340;28;20032;-70
2021/06/24 03:53:11;;;;;;;8.30;4.63;;;14.50;99.90;;;;;;4938346;29;20116;-70
2021/06/24 03:55:45;;;;;;;8.63;4.50;;;14.50;99.90;;;;;;4929753;29;20027;-71
2021/06/24 03:58:13;;;;;;;7.28;4.20;;;14.40;99.90;;;;;;4919106;29;20423;-70
2021/06/24 04:00:44;;;;;;;6.47;4.60;;;14.40;99.90;;;;;;4918918;29;20094;-76
2021/06/24 04:03:11;;;;;;;11.07;4.18;;;14.40;99.90;;;;;;4935788;29;20020;-73
2021/06/24 04:05:37;;;;;;;6.60;4.55;;;14.40;99.90;;;;;;4918909;29;20083;-74
2021/06/24 04:08:05;;;;;;;7.13;4.88;;;14.40;99.90;;;;;;4909309;29;20021;-73
2021/06/24 04:10:31;;;;;;;8.07;4.95;;;14.40;99.90;;;;;;4899476;29;20476;-73
2021/06/24 04:12:57;;;;;;;11.38;4.22;;;14.40;99.90;;;;;;4916415;29;20048;-70
2021/06/24 04:15:24;;;;;;;9.02;4.38;;;14.40;99.90;;;;;;4917212;29;20495;-70
2021/06/24 04:17:50;;;;;;;9.30;4.60;;;14.40;99.90;;;;;;4899121;29;20047;-69
2021/06/24 04:20:16;;;;;;;6.80;4.47;;;14.40;99.90;;;;;;4900075;29;20016;-70
2021/06/24 04:22:43;;;;;;;9.85;4.47;;;14.50;99.90;;;;;;4916650;29;20100;-70
2021/06/24 04:25:10;;;;;;;7.18;4.05;;;14.50;99.90;;;;;;4916274;29;20020;-71
2021/06/24 04:27:36;;;;;;;7.18;4.03;;;14.50;99.90;;;;;;4916657;29;20036;-70
2021/06/24 04:30:04;;;;;;;6.38;3.78;;;14.60;99.90;;;;;;4916683;29;20050;-70
2021/06/24 04:32:30;;;;;;;8.70;4.50;;;14.60;99.90;;;;;;4898967;29;20437;-70
2021/06/24 04:34:55;;;;;;;6.63;4.10;;;14.60;99.90;;;;;;4899667;29;20074;-69
2021/06/24 04:37:21;;;;;;;8.38;4.45;;;14.60;99.90;;;;;;4899160;29;20029;-70
2021/06/24 04:39:46;;;;;;;5.97;3.67;;;14.70;99.90;;;;;;4916365;29;20030;-70
2021/06/24 04:42:12;;;;;;;10.63;4.20;;;14.70;99.90;;;;;;4916542;29;20036;-69
2021/06/24 04:44:38;;;;;;;7.40;4.25;;;14.80;99.90;;;;;;4898556;29;20164;-70
2021/06/24 04:47:04;;;;;;;8.32;4.18;;;14.80;99.90;;;;;;4899419;29;20044;-69
2021/06/24 04:49:30;;;;;;;10.50;4.38;;;14.80;99.90;;;;;;4916344;29;20027;-69
2021/06/24 04:51:55;;;;;;;10.02;4.43;;;14.90;99.90;;;;;;4915669;29;20024;-70
2021/06/24 04:54:21;;;;;;;5.90;4.43;;;14.90;99.90;;;;;;4902811;29;20024;-70
2021/06/24 04:56:46;;;;;;;6.63;3.92;;;14.90;99.90;;;;;;4936458;29;20087;-69
2021/06/24 04:59:13;;;;;;;5.90;4.32;;;14.90;99.90;;;;;;4937133;29;20032;-69
2021/06/24 05:01:38;;;;;;;10.38;3.83;;;15.00;99.90;;;;;;4928464;29;20035;-69
2021/06/24 05:04:04;;;;;;;6.30;3.97;;;15.00;99.90;;;;;;4941362;28;20020;-69
2021/06/24 05:06:30;;;;;;;7.20;4.05;;;15.10;99.90;;;;;;4939325;29;20389;-70
2021/06/24 05:08:55;;;;;;;7.25;3.75;;;15.10;99.90;;;;;;4935065;29;20055;-70
2021/06/24 05:11:21;;;;;;;9.20;4.20;;;15.10;99.90;;;;;;4935331;29;20098;-69
2021/06/24 05:13:46;;;;;;;7.75;4.70;;;15.20;99.90;;;;;;4950737;29;20051;-69
2021/06/24 05:16:12;;;;;;;7.22;4.30;;;15.30;99.90;;;;;;4937065;29;20039;-69
2021/06/24 05:18:37;;;;;;;7.82;4.38;;;15.30;99.90;;;;;;4953964;29;20090;-72
2021/06/24 05:21:04;;;;;;;7.38;3.88;;;15.40;99.90;;;;;;4918899;29;20388;-75
2021/06/24 05:23:30;;;;;;;4.95;4.13;;;15.40;99.90;;;;;;4921198;29;20027;-71
2021/06/24 05:25:56;;;;;;;6.82;4.18;;;15.40;99.90;;;;;;4953981;29;20542;-73
2021/06/24 05:28:21;;;;;;;8.45;3.97;;;15.50;99.90;;;;;;4934546;29;20031;-79
2021/06/24 05:30:48;;;;;;;5.60;3.83;;;15.50;99.90;;;;;;4926042;29;20028;-70
2021/06/24 05:33:14;;;;;;;8.80;4.20;;;15.60;99.90;;;;;;4926999;29;20027;-73
2021/06/24 05:35:40;;;;;;;5.95;4.18;;;15.70;99.90;;;;;;4909415;29;20478;-79
2021/06/24 05:38:11;;;;;;;4.63;3.80;;;15.70;99.90;;;;;;4915584;29;20145;-76
2021/06/24 05:40:38;;;;;;;5.85;3.92;;;15.70;99.90;;;;;;4933339;29;20055;-69
2021/06/24 05:43:04;;;;;;;7.03;3.90;;;15.80;99.90;;;;;;4916302;29;20051;-70
2021/06/24 05:45:30;;;;;;;7.05;3.90;;;15.80;99.90;;;;;;4934275;29;20038;-71
2021/06/24 05:47:56;;;;;;;6.47;4.07;;;15.90;99.90;;;;;;4936723;29;20038;-71
2021/06/24 05:50:26;;;;;;;5.85;3.53;;;16.00;99.90;;;;;;4934801;29;20387;-70
2021/06/24 05:52:55;;;;;;;9.98;4.78;;;16.10;99.90;;;;;;4935249;29;20110;-75
2021/06/24 05:55:47;;;;;;;9.55;4.85;;;16.00;99.90;;;;;;4917135;29;20035;-80
2021/06/24 05:58:12;;;;;;;9.00;3.88;;;15.90;99.90;;;;;;4934448;29;20055;-72
2021/06/24 06:00:39;;;;;;;9.85;4.35;;;15.90;99.90;;;;;;4934377;29;20047;-71
2021/06/24 06:03:05;;;;;;;6.25;3.90;;;16.00;99.90;;;;;;4934008;29;20527;-71
2021/06/24 06:05:32;;;;;;;7.97;4.40;;;16.00;99.90;;;;;;4938421;29;20167;-71
2021/06/24 06:08:03;;;;;;;9.68;4.25;;;16.20;99.90;;;;;;4936442;29;20543;-74
2021/06/24 06:10:29;;;;;;;6.55;4.18;;;16.20;99.90;;;;;;4953041;29;20023;-71
2021/06/24 06:12:55;;;;;;;5.90;4.07;;;16.30;99.90;;;;;;4935806;28;20038;-70
2021/06/24 06:15:20;;;;;;;7.43;4.35;;;16.30;99.90;;;;;;4953762;29;20492;-71
2021/06/24 06:17:46;;;;;;;8.00;4.30;;;16.20;99.90;;;;;;4952287;28;20038;-72
2021/06/24 06:20:12;;;;;;;9.88;4.72;;;16.20;99.90;;;;;;4919907;29;20477;-69
2021/06/24 06:22:38;;;;;;;7.75;4.00;;;16.20;99.90;;;;;;4948979;28;20547;-72
2021/06/24 06:25:04;;;;;;;7.13;4.10;;;16.40;99.90;;;;;;4935897;29;20027;-70
2021/06/24 06:27:31;;;;;;;6.22;3.22;;;16.50;99.90;;;;;;4936107;29;20472;-72
2021/06/24 06:29:56;;;;;;;4.60;3.67;;;16.70;99.90;;;;;;4935662;29;20035;-70
2021/06/24 06:32:23;;;;;;;8.52;4.05;;;16.80;99.90;;;;;;4952188;28;20027;-69
2021/06/24 06:34:49;;;;;;;7.30;3.88;;;17.00;99.90;;;;;;4953252;28;20270;-70
2021/06/24 06:37:15;;;;;;;4.95;4.03;;;17.20;99.90;;;;;;4956610;29;20031;-74
2021/06/24 06:39:41;;;;;;;5.03;4.10;;;17.30;99.90;;;;;;4946569;29;20028;-69
2021/06/24 06:42:07;;;;;;;6.07;4.00;;;17.40;99.90;;;;;;4920620;29;20139;-69
2021/06/24 06:44:32;;;;;;;6.53;3.67;;;17.50;99.90;;;;;;4940314;29;20481;-70
2021/06/24 06:46:58;;;;;;;6.97;3.70;;;17.60;99.90;;;;;;4937634;29;20035;-70
2021/06/24 06:49:24;;;;;;;6.47;4.35;;;17.70;99.90;;;;;;4937748;29;20023;-70
2021/06/24 06:51:49;;;;;;;8.55;3.67;;;17.70;99.90;;;;;;4919608;29;20024;-70
2021/06/24 06:54:15;;;;;;;7.05;4.00;;;17.80;99.90;;;;;;4920317;29;20118;-69
2021/06/24 06:56:45;;;;;;;5.80;3.92;;;17.90;99.90;;;;;;4937115;29;20466;-69
2021/06/24 06:59:11;;;;;;;6.30;3.95;;;17.90;99.90;;;;;;4936898;29;20039;-70
2021/06/24 07:01:36;;;;;;;6.80;4.07;;;17.90;99.90;;;;;;4920116;29;20035;-69
2021/06/24 07:04:02;;;;;;;4.93;3.70;;;18.00;99.90;;;;;;4920170;29;20060;-69
2021/06/24 07:06:28;;;;;;;6.75;3.67;;;18.20;99.90;;;;;;4919580;29;20170;-68
2021/06/24 07:08:55;;;;;;;6.25;3.85;;;18.40;99.90;;;;;;4920167;29;20100;-71
2021/06/24 07:11:21;;;;;;;9.15;4.10;;;18.40;99.90;;;;;;4937602;29;20024;-69
2021/06/24 07:13:47;;;;;;;7.07;3.30;;;18.60;99.90;;;;;;4936050;29;20044;-69
2021/06/24 07:16:12;;;;;;;10.77;3.90;;;18.50;99.90;;;;;;4920229;29;20468;-72
2021/06/24 07:18:38;;;;;;;6.60;3.53;;;18.50;99.90;;;;;;4936834;29;20032;-78
2021/06/24 07:21:04;;;;;;;5.15;3.25;;;18.70;99.90;;;;;;4936240;29;20028;-75
2021/06/24 07:23:29;;;;;;;6.80;3.55;;;18.80;99.70;;;;;;4936837;29;20031;-72
2021/06/24 07:25:55;;;;;;;4.72;3.35;;;19.00;99.50;;;;;;4936998;29;20070;-82
2021/06/24 07:28:20;;;;;;;5.30;3.17;;;19.10;99.30;;;;;;4936464;29;20440;-82
2021/06/24 07:30:49;;;;;;;5.05;3.10;;;19.10;99.40;;;;;;4936595;29;20028;-80
2021/06/24 07:33:16;;;;;;;7.97;3.58;;;19.30;99.60;;;;;;4936310;29;20432;-74
2021/06/24 07:35:41;;;;;;;6.70;3.45;;;19.50;99.00;;;;;;4936614;29;20051;-70
2021/06/24 07:38:07;;;;;;;4.47;2.85;;;19.50;97.80;;;;;;4936740;29;20063;-69
2021/06/24 07:40:33;;;;;;;3.55;2.70;;;19.60;97.90;;;;;;4936075;29;20034;-69
2021/06/24 07:42:59;;;;;;;4.53;2.90;;;19.70;97.20;;;;;;4936573;29;20385;-69
2021/06/24 07:45:26;;;;;;;8.13;3.75;;;19.70;96.40;;;;;;4919457;29;20468;-70
2021/06/24 07:47:51;;;;;;;5.45;2.95;;;19.50;95.60;;;;;;4918553;29;20059;-70
2021/06/24 07:50:17;;;;;;;4.80;2.90;;;19.40;95.70;;;;;;4936584;29;20464;-70
2021/06/24 07:52:42;;;;;;;4.10;2.60;;;19.30;96.10;;;;;;4936244;29;20027;-69
2021/06/24 07:55:10;;;;;;;5.60;2.92;;;19.30;96.40;;;;;;4935874;29;20477;-70
2021/06/24 07:57:36;;;;;;;4.63;2.78;;;19.60;96.60;;;;;;4936266;29;20066;-70
2021/06/24 08:00:04;;;;;;;5.68;2.72;;;19.80;96.30;;;;;;4919333;29;20484;-76
2021/06/24 08:02:30;;;;;;;4.55;2.80;;;19.90;95.90;;;;;;4935444;29;20032;-71
2021/06/24 08:04:55;;;;;;;6.95;2.65;;;20.10;95.80;;;;;;4919285;29;20028;-71
2021/06/24 08:07:21;;;;;;;5.75;3.03;;;20.10;95.60;;;;;;4918990;29;20090;-69
2021/06/24 08:09:46;;;;;;;4.95;3.22;;;20.30;94.80;;;;;;4935245;29;20019;-70
2021/06/24 08:12:12;;;;;;;6.78;2.78;;;20.20;94.30;;;;;;4936147;29;20499;-70
2021/06/24 08:14:38;;;;;;;6.65;2.72;;;20.10;94.20;;;;;;4935911;29;20396;-70
2021/06/24 08:17:03;;;;;;;3.40;2.40;;;20.10;94.40;;;;;;4918397;29;20508;-69
2021/06/24 08:19:29;;;;;;;6.90;3.55;;;20.10;94.30;;;;;;4935930;29;20031;-70
2021/06/24 08:21:58;;;;;;;6.78;3.35;;;20.10;94.50;;;;;;4935865;29;20110;-69
2021/06/24 08:24:25;;;;;;;5.25;3.10;;;20.10;95.00;;;;;;4918248;29;20024;-69
2021/06/24 08:26:50;;;;;;;4.28;3.00;;;20.40;94.70;;;;;;4935574;29;20396;-69
2021/06/24 08:29:16;;;;;;;8.15;3.40;;;20.50;94.40;;;;;;4935924;29;20027;-69
2021/06/24 08:31:42;;;;;;;6.95;3.67;;;20.60;94.20;;;;;;4934958;29;20548;-69
2021/06/24 08:34:07;;;;;;;5.07;3.25;;;20.60;93.10;;;;;;4935825;29;20492;-70
2021/06/24 08:36:33;;;;;;;6.50;3.80;;;20.40;93.60;;;;;;4917889;29;20032;-69
2021/06/24 08:38:58;;;;;;;5.65;3.10;;;20.40;93.70;;;;;;4918484;29;20425;-69
2021/06/24 08:41:27;;;;;;;5.55;3.75;;;20.40;93.90;;;;;;4935749;29;20059;-70
2021/06/24 08:43:55;;;;;;;4.75;3.40;;;20.30;93.90;;;;;;4934692;29;20469;-70
2021/06/24 08:46:22;;;;;;;8.55;3.55;;;20.20;94.00;;;;;;4935670;29;20066;-74
2021/06/24 08:48:49;;;;;;;5.20;3.20;;;20.10;93.90;;;;;;4935287;29;20532;-70
2021/06/24 08:51:14;;;;;;;4.88;3.58;;;20.00;94.10;;;;;;4934970;29;20027;-69
2021/06/24 08:53:41;;;;;;;5.07;2.92;;;20.00;94.00;;;;;;4917914;29;20087;-70
2021/06/24 08:56:07;;;;;;;8.27;3.75;;;19.90;93.60;;;;;;4935594;29;20024;-69
2021/06/24 08:58:33;;;;;;;5.90;3.50;;;19.90;93.30;;;;;;4934242;29;20441;-69
2021/06/24 09:00:59;;;;;;;5.43;3.40;;;19.70;93.50;;;;;;4935290;29;20031;-69
2021/06/24 09:03:28;;;;;;;6.85;4.05;;;19.70;94.20;;;;;;4935489;29;20103;-69
2021/06/24 09:05:57;;;;;;;5.78;3.88;;;19.70;94.00;;;;;;4917518;29;20040;-69
2021/06/24 09:08:26;;;;;;;6.68;3.60;;;19.60;94.30;;;;;;4935341;29;20038;-70
2021/06/24 09:11:17;;;;;;;4.65;3.20;;;19.60;94.50;;;;;;4917903;29;20032;-69
2021/06/24 09:13:45;;;;;;;4.63;3.50;;;19.60;95.00;;;;;;4917036;29;20098;-70
2021/06/24 09:16:22;;;;;;;6.22;3.47;;;19.70;95.00;;;;;;4935204;29;20071;-69
2021/06/24 09:18:48;;;;;;;4.72;3.40;;;19.70;94.80;;;;;;4934052;29;20031;-80
2021/06/24 09:21:24;;;;;;;5.55;3.70;;;19.70;95.10;;;;;;4935300;29;20032;-78
2021/06/24 09:23:52;;;;;;;7.63;3.85;;;19.80;95.00;;;;;;4917603;29;20552;-70
2021/06/24 09:26:19;;;;;;;5.10;3.42;;;19.90;95.00;;;;;;4934395;29;20042;-72
2021/06/24 09:28:51;;;;;;;5.97;3.80;;;19.90;94.80;;;;;;4917615;29;20468;-70
2021/06/24 09:31:31;;;;;;;4.28;3.28;;;19.80;94.50;;;;;;4934970;29;20070;-75
2021/06/24 09:34:05;;;;;;;7.68;4.10;;;19.70;94.70;;;;;;4934103;29;20236;-68
2021/06/24 09:36:35;;;;;;;9.48;4.30;;;19.50;94.50;;;;;;4934884;29;20118;-70
2021/06/24 09:39:02;;;;;;;4.43;3.58;;;19.30;94.70;;;;;;4917789;29;20047;-69
2021/06/24 09:41:28;;;;;;;6.95;3.88;;;19.20;94.90;;;;;;4934328;29;20027;-69
2021/06/24 09:43:54;;;;;;;9.43;3.90;;;19.10;95.20;;;;;;4934468;29;20094;-69
2021/06/24 09:46:23;;;;;;;8.63;4.72;;;19.00;95.40;;;;;;4917833;29;20149;-70
2021/06/24 09:48:55;;;;;;;6.22;4.07;;;18.90;95.60;;;;;;4933850;29;20520;-69
2021/06/24 09:51:50;;;;;;;6.82;3.90;;;18.80;95.80;;;;;;4917881;29;20082;-69
2021/06/24 09:54:17;;;;;;;5.32;3.97;;;18.70;95.70;;;;;;4932306;29;20035;-73
2021/06/24 09:56:48;;;;;;;6.30;4.25;;;18.50;95.90;;;;;;4934339;29;20505;-72
2021/06/24 09:59:15;;;;;;;6.53;4.00;;;18.40;96.10;;;;;;4917663;29;20114;-69
2021/06/24 10:01:46;;;;;;;5.65;3.85;;;18.40;96.60;;;;;;4933599;29;20107;-69
2021/06/24 10:04:22;;;;;;;6.68;3.80;;;18.50;96.40;;;;;;4934599;29;20028;-69
2021/06/24 10:06:55;;;;;;;8.88;4.53;;;18.60;96.40;;;;;;4917147;29;20500;-69
2021/06/24 10:09:22;;;;;;;6.22;4.45;;;18.50;96.20;;;;;;4936999;29;20020;-69
2021/06/24 10:11:48;;;;;;;6.18;4.10;;;18.50;96.00;;;;;;4938089;29;20110;-69
2021/06/24 10:14:15;;;;;;;6.60;4.95;;;18.50;96.50;;;;;;4920938;29;20385;-69
2021/06/24 10:16:47;;;;;;;8.60;4.25;;;18.60;96.60;;;;;;4920169;29;20056;-69
2021/06/24 10:19:15;;;;;;;9.00;5.15;;;18.70;96.60;;;;;;4921243;29;20031;-70
2021/06/24 10:21:41;;;;;;;7.43;4.82;;;18.80;96.20;;;;;;4920722;29;20027;-69
2021/06/24 10:24:16;;;;;;;7.05;5.07;;;18.90;96.10;;;;;;4920142;29;20043;-69
2021/06/24 10:26:44;;;;;;;5.25;4.13;;;19.00;95.90;;;;;;4920595;29;20036;-72
2021/06/24 10:29:17;;;;;;;8.20;5.38;;;19.10;95.70;;;;;;4920318;29;20019;-70
2021/06/24 10:31:43;;;;;;;9.40;4.30;;;19.30;95.60;;;;;;4920602;29;20016;-70
2021/06/24 10:34:10;;;;;;;4.75;3.70;;;19.50;95.70;;;;;;4937885;29;20046;-70
2021/06/24 10:36:36;;;;;;;7.03;3.55;;;19.70;95.60;;;;;;4919867;29;20046;-70
2021/06/24 10:39:03;;;;;;;4.97;3.80;;;19.90;95.50;;;;;;4937913;29;20473;-70
2021/06/24 10:42:09;;;;;;;5.53;3.70;;;20.10;94.90;;;;;;4920723;29;20051;-70
2021/06/24 10:44:54;;;;;;;8.00;4.75;;;20.20;95.30;;;;;;4936823;29;20054;-69
2021/06/24 10:47:36;;;;;;;7.07;4.72;;;20.10;94.60;;;;;;4937704;29;20036;-79
2021/06/24 10:50:32;;;;;;;4.93;4.47;;;20.10;95.00;;;;;;4937173;29;20385;-70
2021/06/24 10:53:06;;;;;;;4.57;3.65;;;20.10;94.80;;;;;;4937579;29;20074;-69
2021/06/24 10:55:32;;;;;;;5.60;4.10;;;20.10;94.90;;;;;;4920239;29;20048;-71
2021/06/24 10:58:10;;;;;;;6.35;3.90;;;20.10;95.30;;;;;;4919700;29;20099;-69
2021/06/24 11:00:45;;;;;;;5.07;3.58;;;20.20;95.30;;;;;;4937412;29;20027;-69
2021/06/24 11:03:13;;;;;;;5.15;3.97;;;20.30;95.00;;;;;;4937529;29;20068;-69
2021/06/24 11:05:39;;;;;;;6.35;4.40;;;20.40;95.00;;;;;;4919345;29;20118;-69
2021/06/24 11:08:26;;;;;;;5.57;4.25;;;20.50;94.60;;;;;;4937269;29;20036;-69
2021/06/24 11:10:56;;;;;;;6.50;4.47;;;20.50;94.80;;;;;;4937271;29;20032;-71
2021/06/24 11:13:37;;;;;;;5.47;4.40;;;20.60;94.90;;;;;;4936636;29;20048;-72
2021/06/24 11:16:07;;;;;;;4.93;4.18;;;20.60;94.80;;;;;;4920079;29;20104;-71
2021/06/24 11:18:36;;;;;;;7.10;4.32;;;20.60;94.50;;;;;;4936279;29;20104;-73
2021/06/24 11:21:04;;;;;;;7.30;4.40;;;20.60;94.30;;;;;;4936404;29;20111;-72
2021/06/24 11:23:34;;;;;;;7.00;5.32;;;20.60;94.40;;;;;;4919716;29;20107;-72
2021/06/24 11:26:04;;;;;;;6.80;4.40;;;20.50;94.00;;;;;;4919293;29;20143;-71
2021/06/24 11:28:43;;;;;;;5.80;4.65;;;20.50;94.40;;;;;;4919685;29;20034;-71
2021/06/24 11:31:09;;;;;;;7.18;4.90;;;20.50;94.60;;;;;;4919824;29;20075;-70
2021/06/24 11:33:41;;;;;;;9.57;5.13;;;20.60;94.30;;;;;;4936028;29;20032;-69
2021/06/24 11:36:12;;;;;;;7.25;4.90;;;20.50;94.20;;;;;;4936927;29;20024;-69
2021/06/24 11:38:47;;;;;;;7.40;5.15;;;20.50;94.50;;;;;;4936593;29;20023;-70
2021/06/24 11:41:13;;;;;;;6.97;4.88;;;20.40;94.50;;;;;;4919135;29;20119;-71
2021/06/24 11:43:39;;;;;;;7.32;5.68;;;20.30;94.70;;;;;;4936349;29;20110;-70
2021/06/24 11:46:06;;;;;;;7.95;5.18;;;20.30;95.10;;;;;;4919613;29;20078;-71
2021/06/24 11:48:31;;;;;;;6.13;4.47;;;20.20;94.70;;;;;;4935627;29;20035;-75
2021/06/24 12:04:57;;;;;;;5.60;5.07;;;20.10;95.40;;;;;;4935943;29;20047;-75
2021/06/24 12:07:22;;;;;;;7.68;5.18;;;20.10;95.50;;;;;;4935983;29;20091;-69
2021/06/24 12:09:50;;;;;;;6.85;5.10;;;20.10;95.30;;;;;;4935889;29;20103;-69
2021/06/24 12:12:24;;;;;;;5.18;4.40;;;20.20;95.70;;;;;;4936323;29;20024;-72
2021/06/24 12:14:52;;;;;;;6.68;4.68;;;20.40;96.30;;;;;;4917980;29;20102;-70
2021/06/24 12:17:18;;;;;;;8.25;5.28;;;20.70;96.60;;;;;;4936120;29;20035;-70
2021/06/24 12:19:48;;;;;;;7.47;5.43;;;20.70;95.50;;;;;;4918608;29;20532;-70
2021/06/24 12:22:16;;;;;;;8.05;5.40;;;20.70;95.70;;;;;;4935378;29;20032;-70
2021/06/24 12:24:43;;;;;;;7.15;5.68;;;20.60;95.80;;;;;;4935556;29;20469;-72
2021/06/24 12:27:28;;;;;;;6.00;5.13;;;20.60;96.30;;;;;;4935939;29;20489;-72
2021/06/24 12:30:00;;;;;;;7.93;5.78;;;20.50;96.60;;;;;;4934885;29;20030;-69
2021/06/24 12:32:26;;;;;;;6.63;5.07;;;20.40;96.90;;;;;;4918009;29;20479;-71
2021/06/24 12:34:57;;;;;;;6.25;4.88;;;20.30;97.20;;;;;;4918353;29;20505;-70
2021/06/24 12:37:35;;;;;;;5.80;5.20;;;20.30;96.70;;;;;;4935459;29;20381;-70
2021/06/24 12:40:06;;;;;;;7.85;5.47;;;20.30;97.30;;;;;;4935620;29;20028;-70
2021/06/24 12:42:33;;;;;;;7.15;5.90;;;20.30;97.30;;;;;;4934957;29;20429;-70
2021/06/24 12:45:00;;;;;;;6.85;5.68;;;20.60;97.30;;;;;;4935813;29;20035;-70
2021/06/24 12:47:46;;;;;;;8.77;5.63;;;21.00;96.90;;;;;;4935737;29;20032;-70
2021/06/24 12:50:22;;;;;;;7.00;5.30;;;21.40;96.80;;;;;;4934933;29;20031;-71
2021/06/24 12:52:54;;;;;;;5.80;4.82;;;21.80;95.90;;;;;;4935130;29;20087;-69
2021/06/24 12:55:52;;;;;;;6.60;5.28;;;22.00;95.20;;;;;;4918512;29;20024;-69
2021/06/24 12:58:31;;;;;;;5.70;4.68;;;22.40;94.80;;;;;;4934794;29;20219;-70
2021/06/24 13:01:14;;;;;;;7.85;6.03;;;22.60;94.40;;;;;;4935400;29;20031;-71
2021/06/24 13:03:45;;;;;;;9.63;5.47;;;22.80;94.00;;;;;;4917366;29;20035;-69